TimeCAT,TemperatureF,Dew PointF,Humidity,Sea Level PressureIn,VisibilityMPH,Wind Direction,Wind SpeedMPH,Gust SpeedMPH,PrecipitationIn,Events,Conditions,WindDirDegrees,DateUTC
5:00 AM,68.0,50.0,52,30.01,-9999.0,Variable,2.3,-,N/A,,Clear,0,2012-11-05 03:00:00
6:00 AM,66.2,48.2,52,30.01,-9999.0,East,8.1,-,N/A,,Clear,100,2012-11-05 04:00:00
7:00 AM,71.6,48.2,43,30.04,-9999.0,East,4.6,-,N/A,,Clear,90,2012-11-05 05:00:00
8:00 AM,79,51,27,,6,ENE,4.6,,,,Clear,60,2012-11-05 06:00:00
8:00 AM,78.8,51.8,39,30.06,-9999.0,ENE,4.6,-,N/A,,Clear,60,2012-11-05 06:00:00
9:00 AM,86.0,57.2,37,30.06,-9999.0,North,9.2,-,N/A,,Clear,10,2012-11-05 07:00:00
10:00 AM,89.6,57.2,33,30.04,-9999.0,North,9.2,-,N/A,,Clear,360,2012-11-05 08:00:00
11:00 AM,93.2,51.8,24,30.04,6.2,Variable,2.3,-,N/A,,Partly Cloudy,0,2012-11-05 09:00:00
12:00 PM,95.0,55.4,26,30.01,6.2,ENE,6.9,-,N/A,,Partly Cloudy,70,2012-11-05 10:00:00
1:00 PM,95.0,51.8,23,29.98,6.2,North,5.8,-,N/A,,Partly Cloudy,360,2012-11-05 11:00:00
2:00 PM,96,53,15,,6,SSW,4.6,,,,Scattered Clouds,210,2012-11-05 12:00:00
2:00 PM,95.0,53.6,25,29.95,6.2,SSW,4.6,-,N/A,,Partly Cloudy,210,2012-11-05 12:00:00
3:00 PM,96.8,55.4,25,29.92,6.2,ESE,6.9,-,N/A,,Scattered Clouds,110,2012-11-05 13:00:00
4:00 PM,98.6,55.4,24,29.89,6.2,SW,6.9,-,N/A,,Scattered Clouds,230,2012-11-05 14:00:00
5:00 PM,98.6,55.4,24,29.89,6.2,South,4.6,-,N/A,,Partly Cloudy,180,2012-11-05 15:00:00
6:00 PM,96.8,50.0,20,29.89,-9999.0,NNW,5.8,-,N/A,,Clear,340,2012-11-05 16:00:00
7:00 PM,93.2,53.6,26,29.92,-9999.0,WNW,3.5,-,N/A,,Clear,300,2012-11-05 17:00:00
8:00 PM,87,53,22,,6,ESE,3.5,,,,Smoke,120,2012-11-05 18:00:00
8:00 PM,86.0,53.6,33,29.95,-9999.0,ESE,3.5,-,N/A,,Clear,120,2012-11-05 18:00:00
9:00 PM,82.4,53.6,37,29.95,-9999.0,South,3.5,-,N/A,,Clear,170,2012-11-05 19:00:00
10:00 PM,86.0,48.2,27,29.98,-9999.0,SSE,5.8,-,N/A,,Clear,150,2012-11-05 20:00:00
11:00 PM,84.2,46.4,27,29.98,-9999.0,SSE,4.6,-,N/A,,Clear,160,2012-11-05 21:00:00